Time;durP1;ratioP1;P1;durP2;ratioP2;P2;SDS_P1;SDS_P2;PMS_P1;PMS_P2;Temp;Humidity;BMP_temperature;BMP_pressure;BME280_temperature;BME280_humidity;BME280_pressure;Samples;Min_cycle;Max_cycle;Signal;HPM_P1;HPM_P2
2021/12/07 00:01:49;;;;;;;2.05;1.20;;;;;;;-3.98;90.59;99566.23;1748381;81;21892;-72
2021/12/07 00:04:16;;;;;;;1.77;1.32;;;;;;;-3.95;90.51;99562.03;1773142;78;21512;-73
2021/12/07 00:06:43;;;;;;;2.40;1.27;;;;;;;-3.89;90.53;99559.53;1769742;78;20948;-73
2021/12/07 00:09:15;;;;;;;1.32;1.22;;;;;;;-3.87;90.40;99562.92;1797098;78;20981;-73
2021/12/07 00:11:43;;;;;;;2.30;1.37;;;;;;;-3.87;90.34;99560.38;1779055;80;21068;-73
2021/12/07 00:14:12;;;;;;;1.47;1.10;;;;;;;-3.88;90.19;99554.85;1764622;80;21122;-73
2021/12/07 00:16:41;;;;;;;2.72;1.10;;;;;;;-3.88;90.06;99559.95;1758600;79;21088;-73
2021/12/07 00:19:09;;;;;;;2.25;1.30;;;;;;;-3.90;90.29;99562.91;1765528;79;21006;-73
2021/12/07 00:21:38;;;;;;;2.45;1.17;;;;;;;-3.87;90.34;99564.20;1760753;80;21543;-73
2021/12/07 00:24:07;;;;;;;2.08;1.37;;;;;;;-3.86;90.38;99563.80;1761199;79;20973;-73
2021/12/07 00:26:34;;;;;;;1.62;1.32;;;;;;;-3.84;90.40;99560.43;1763960;80;21072;-73
2021/12/07 00:29:03;;;;;;;2.45;1.60;;;;;;;-3.84;90.18;99565.53;1762553;80;20985;-72
2021/12/07 00:31:38;;;;;;;1.85;1.47;;;;;;;-3.84;90.18;99565.53;1765652;80;21056;-73
2021/12/07 00:34:16;;;;;;;2.62;1.60;;;;;;;-3.88;90.14;99559.95;1755311;80;20993;-73
2021/12/07 00:36:44;;;;;;;2.62;1.92;;;;;;;-3.88;90.29;99561.23;1746095;81;21087;-73
2021/12/07 00:39:15;;;;;;;1.92;1.60;;;;;;;-3.91;89.90;99563.76;1774250;80;21091;-73
2021/12/07 00:41:42;;;;;;;4.78;2.65;;;;;;;-3.96;90.00;99559.45;1769378;80;21517;-72
2021/12/07 00:44:09;;;;;;;3.47;2.37;;;;;;;-3.98;89.86;99561.98;1734782;80;21053;-73
2021/12/07 00:46:35;;;;;;;3.67;2.58;;;;;;;-4.01;89.96;99558.13;1767234;80;21359;-73
2021/12/07 00:49:03;;;;;;;4.42;2.40;;;;;;;-4.00;90.20;99558.58;1761533;80;21053;-73
2021/12/07 00:51:30;;;;;;;5.72;2.90;;;;;;;-3.98;90.13;99558.58;1763379;80;21246;-74
2021/12/07 00:53:57;;;;;;;6.72;2.47;;;;;;;-4.02;89.98;99556.44;1770548;80;20997;-73
2021/12/07 00:56:24;;;;;;;2.63;2.00;;;;;;;-4.05;90.04;99550.03;1751950;80;21052;-73
2021/12/07 00:58:51;;;;;;;3.80;2.40;;;;;;;-4.04;89.95;99556.83;1790455;79;21007;-73
2021/12/07 01:01:20;;;;;;;7.75;2.33;;;;;;;-4.07;89.96;99551.70;1793894;79;26543;-73
2021/12/07 01:03:49;;;;;;;3.85;2.20;;;;;;;-4.06;90.08;99549.61;1799981;78;21189;-73
2021/12/07 01:06:24;;;;;;;3.72;2.02;;;;;;;-4.05;90.10;99550.88;1787635;78;20909;-73
2021/12/07 01:08:58;;;;;;;3.47;2.02;;;;;;;-4.05;89.89;99548.76;1786447;78;21525;-73
2021/12/07 01:25:12;;;;;;;5.85;2.58;;;;;;;-4.16;90.08;99533.78;1755447;79;21517;-73
2021/12/07 01:27:39;;;;;;;5.60;2.53;;;;;;;-4.13;90.08;99541.03;1744725;79;21092;-73
2021/12/07 01:30:16;;;;;;;4.72;2.40;;;;;;;-4.13;90.08;99539.76;1755445;80;21846;-73
2021/12/07 01:38:07;;;;;;;5.20;2.42;;;;;;;-4.01;90.48;99533.05;1790269;78;21132;-73
2021/12/07 01:40:52;;;;;;;;;;;;;;;-3.94;90.60;99534.41;1798060;78;21633;-73
2021/12/07 01:51:46;;;;;;;3.62;3.08;;;;;;;-3.86;90.55;99540.84;1781212;79;21033;-73
2021/12/07 01:59:33;;;;;;;4.42;2.98;;;;;;;-3.74;90.99;99534.98;1769490;79;21098;-73
2021/12/07 02:02:08;;;;;;;5.30;3.12;;;;;;;-3.75;90.78;99523.92;1760058;79;20926;-73
2021/12/07 02:04:36;;;;;;;6.40;3.52;;;;;;;-3.77;90.69;99519.66;1762754;79;21072;-73
2021/12/07 02:07:05;;;;;;;7.37;3.72;;;;;;;-3.74;90.87;99514.56;1763886;79;20986;-73
2021/12/07 02:09:37;;;;;;;9.33;4.22;;;;;;;-3.72;90.98;99512.89;1755247;80;21130;-73
2021/12/07 02:12:07;;;;;;;6.85;4.00;;;;;;;-3.64;91.16;99518.87;1758699;80;20996;-72
2021/12/07 02:14:35;;;;;;;5.30;3.30;;;;;;;-3.56;91.21;99516.38;1753208;80;21041;-72
2021/12/07 02:17:09;;;;;;;5.20;3.67;;;;;;;-3.51;91.15;99511.73;1789175;79;21022;-72
2021/12/07 02:19:37;;;;;;;6.47;3.77;;;;;;;-3.55;90.93;99510.02;1786115;78;21538;-73
2021/12/07 02:22:03;;;;;;;5.62;3.22;;;;;;;-3.54;91.06;99509.16;1755564;80;21160;-72
2021/12/07 02:24:31;;;;;;;5.17;3.08;;;;;;;-3.54;90.90;99512.99;1783588;78;21049;-73
2021/12/07 02:26:58;;;;;;;4.97;3.20;;;;;;;-3.58;90.81;99523.16;1753590;80;21054;-72
2021/12/07 02:29:25;;;;;;;5.97;3.87;;;;;;;-3.56;91.08;99519.78;1762506;80;21576;-73
2021/12/07 02:31:54;;;;;;;9.20;4.97;;;;;;;-3.55;90.95;99515.13;1753625;80;20923;-72
2021/12/07 02:34:25;;;;;;;8.58;4.62;;;;;;;-3.55;91.00;99517.67;1760587;79;21083;-73
2021/12/07 02:36:54;;;;;;;13.50;6.80;;;;;;;-3.54;91.01;99516.82;1758523;80;20908;-72
2021/12/07 02:39:28;;;;;;;11.93;7.90;;;;;;;-3.59;90.84;99514.66;1761204;80;21107;-73
2021/12/07 02:41:55;;;;;;;12.88;7.70;;;;;;;-3.66;90.73;99510.38;1756716;80;21043;-73
2021/12/07 02:44:21;;;;;;;12.13;7.47;;;;;;;-3.71;90.91;99507.78;1758911;80;21010;-73
2021/12/07 02:46:48;;;;;;;12.70;8.15;;;;;;;-3.70;91.00;99506.08;1759270;79;21087;-73
2021/12/07 02:49:15;;;;;;;14.73;8.90;;;;;;;-3.73;91.00;99504.36;1763008;80;21112;-73
2021/12/07 02:51:42;;;;;;;17.13;9.17;;;;;;;-3.72;91.05;99507.78;1789150;79;20967;-74
2021/12/07 02:54:09;;;;;;;14.53;10.45;;;;;;;-3.71;91.19;99504.38;1763990;79;21095;-73
2021/12/07 02:56:35;;;;;;;15.30;10.25;;;;;;;-3.73;91.12;99500.95;1758584;80;20949;-73
2021/12/07 02:59:04;;;;;;;17.35;11.75;;;;;;;-3.74;91.04;99500.53;1782064;79;21589;-73
2021/12/07 03:01:36;;;;;;;16.67;11.03;;;;;;;-3.76;91.10;99506.04;1762370;79;21584;-72
2021/12/07 03:04:12;;;;;;;18.23;11.85;;;;;;;-3.78;91.02;99510.27;1780964;79;20948;-73
2021/12/07 03:07:02;;;;;;;23.73;13.55;;;;;;;-3.84;90.96;99517.06;1800418;79;21456;-72
2021/12/07 03:28:21;;;;;;;20.17;13.22;;;;;;;-3.88;91.52;99521.69;1659178;84;22165;-72
2021/12/07 03:30:48;;;;;;;21.57;14.40;;;;;;;-3.91;91.56;99520.82;1660723;84;21072;-73
2021/12/07 03:33:15;;;;;;;22.45;13.38;;;;;;;-3.92;91.59;99523.80;1663286;84;21658;-72
2021/12/07 03:35:42;;;;;;;22.30;14.63;;;;;;;-3.89;91.76;99527.64;1666157;84;21120;-72
2021/12/07 03:38:09;;;;;;;23.22;16.02;;;;;;;-3.86;91.77;99528.09;1668731;84;21033;-73
2021/12/07 03:40:37;;;;;;;22.67;15.43;;;;;;;-3.86;91.76;99526.39;1659771;84;20974;-72
2021/12/07 03:43:06;;;;;;;24.12;15.80;;;;;;;-3.86;91.68;99532.77;1666844;84;21088;-73
2021/12/07 03:45:33;;;;;;;27.73;16.40;;;;;;;-3.83;91.91;99531.52;1658029;84;20974;-73
2021/12/07 03:48:03;;;;;;;23.42;16.37;;;;;;;-3.79;91.97;99526.44;1643087;85;21066;-72
2021/12/07 03:50:31;;;;;;;20.27;14.73;;;;;;;-3.80;91.80;99527.28;1668449;84;21686;-72
2021/12/07 03:52:58;;;;;;;22.85;14.15;;;;;;;-3.79;91.91;99528.55;1779696;79;21072;-72
2021/12/07 03:55:25;;;;;;;21.35;14.55;;;;;;;-3.78;91.86;99529.41;1760435;79;21036;-72
2021/12/07 03:57:52;;;;;;;22.97;15.33;;;;;;;-3.79;91.80;99531.53;1756115;80;21534;-73
2021/12/07 04:00:24;;;;;;;20.70;14.90;;;;;;;-3.81;91.84;99523.85;1756802;79;21004;-72
2021/12/07 04:02:53;;;;;;;25.25;16.70;;;;;;;-3.80;91.78;99522.19;1779693;78;21898;-72
2021/12/07 04:05:22;;;;;;;22.60;17.10;;;;;;;-3.91;91.49;99522.95;1760453;78;21063;-73
2021/12/07 04:07:51;;;;;;;24.80;15.85;;;;;;;-4.03;91.50;99522.86;1792119;78;20976;-72
2021/12/07 04:10:22;;;;;;;23.25;16.05;;;;;;;-4.09;91.72;99523.66;1792127;78;20973;-73
2021/12/07 04:12:49;;;;;;;23.12;17.32;;;;;;;-4.15;91.69;99517.64;1789698;79;20953;-72
2021/12/07 04:15:18;;;;;;;23.47;16.12;;;;;;;-4.19;91.89;99517.19;1782693;79;21077;-73
2021/12/07 04:17:45;;;;;;;24.00;17.15;;;;;;;-4.23;91.85;99516.70;1785523;79;20996;-73
2021/12/07 04:20:15;;;;;;;21.07;16.27;;;;;;;-4.28;91.91;99522.63;1767566;79;20942;-72
2021/12/07 04:22:43;;;;;;;26.12;17.67;;;;;;;-4.32;91.91;99528.53;1788744;79;21009;-73
2021/12/07 04:25:13;;;;;;;22.32;16.35;;;;;;;-4.38;91.90;99521.25;1784468;79;21010;-73
2021/12/07 04:27:40;;;;;;;24.70;17.32;;;;;;;-4.43;91.93;99528.84;1754743;80;21209;-73
2021/12/07 04:30:12;;;;;;;24.87;17.40;;;;;;;-4.46;91.97;99540.28;1761558;80;21530;-72
2021/12/07 04:32:39;;;;;;;24.98;17.90;;;;;;;-4.47;92.09;99534.77;1758470;80;21006;-73
2021/12/07 04:35:08;;;;;;;24.50;17.17;;;;;;;-4.52;92.09;99547.88;1761387;80;21044;-73
2021/12/07 04:37:35;;;;;;;23.15;17.42;;;;;;;-4.53;92.16;99547.02;1775325;79;20982;-73
2021/12/07 04:40:05;;;;;;;23.40;17.23;;;;;;;-4.56;92.12;99556.34;1785203;78;21529;-73
2021/12/07 04:42:31;;;;;;;24.70;16.57;;;;;;;-4.60;92.06;99562.22;1763675;80;21406;-73
2021/12/07 04:45:02;;;;;;;19.93;14.53;;;;;;;-4.65;92.05;99560.03;1762592;79;21085;-73
2021/12/07 04:50:33;;;;;;;24.20;16.65;;;;;;;-4.75;91.94;99571.39;1760332;80;21011;-73
2021/12/07 04:58:17;;;;;;;15.50;12.13;;;;;;;-4.84;91.90;99578.09;1762680;80;21571;-73
2021/12/07 05:00:44;;;;;;;15.50;11.85;;;;;;;-4.88;91.89;99579.72;1765245;80;20942;-72
2021/12/07 05:03:13;;;;;;;16.73;11.33;;;;;;;-4.92;91.90;99577.98;1764990;80;21080;-72
2021/12/07 05:05:45;;;;;;;11.75;9.25;;;;;;;-4.98;91.77;99580.03;1761338;80;21274;-72
2021/12/07 05:08:11;;;;;;;14.00;8.43;;;;;;;-5.06;91.63;99576.95;1761566;79;20956;-72
2021/12/07 05:11:00;;;;;;;14.65;8.48;;;;;;;-5.13;91.67;99586.59;1762373;79;21002;-72
2021/12/07 05:39:55;;;;;;;13.77;8.00;;;;;;;-5.46;91.84;99596.72;1750158;80;21766;-73
2021/12/07 05:42:23;;;;;;;13.53;9.40;;;;;;;-5.52;91.65;99598.76;1766569;80;21038;-72
2021/12/07 05:44:53;;;;;;;13.85;9.40;;;;;;;-5.55;91.80;99596.59;1759260;79;21629;-72
2021/12/07 05:47:20;;;;;;;11.10;8.58;;;;;;;-5.57;91.87;99588.95;1765504;79;21060;-72
2021/12/07 05:49:46;;;;;;;10.38;8.10;;;;;;;-5.57;91.87;99598.25;1750214;80;21519;-72
2021/12/07 05:52:13;;;;;;;11.18;8.03;;;;;;;-5.58;91.84;99596.13;1753029;80;20955;-72
2021/12/07 05:54:40;;;;;;;11.05;8.78;;;;;;;-5.60;91.81;99595.66;1753313;80;21086;-72
2021/12/07 05:57:07;;;;;;;11.03;8.73;;;;;;;-5.60;91.85;99600.75;1754619;80;21105;-71
2021/12/07 05:59:34;;;;;;;15.63;11.53;;;;;;;-5.58;91.90;99601.64;1756322;81;21623;-72
2021/12/07 06:02:01;;;;;;;140.28;90.20;;;;;;;-5.58;91.91;99597.40;1756693;81;21547;-72
2021/12/07 06:04:30;;;;;;;84.42;55.88;;;;;;;-5.55;91.88;99600.41;1752463;81;21085;-73
2021/12/07 06:06:57;;;;;;;125.72;90.30;;;;;;;-5.54;91.85;99605.95;1751388;80;21474;-72
2021/12/07 06:09:24;;;;;;;130.18;99.37;;;;;;;-5.51;91.85;99606.00;1748255;80;21144;-71
2021/12/07 06:11:50;;;;;;;128.05;98.87;;;;;;;-5.46;91.93;99611.98;1782804;80;20941;-72
2021/12/07 06:14:20;;;;;;;69.10;50.73;;;;;;;-5.46;91.82;99614.53;1754569;79;21648;-73
2021/12/07 06:16:48;;;;;;;25.05;16.42;;;;;;;-5.47;91.66;99607.75;1742341;80;21606;-73
2021/12/07 06:19:15;;;;;;;31.52;22.90;;;;;;;-5.54;91.45;99603.41;1759973;80;21037;-71
2021/12/07 06:21:57;;;;;;;25.52;17.52;;;;;;;-5.55;91.54;99606.77;1743533;81;22086;-75
2021/12/07 06:24:23;;;;;;;16.23;12.05;;;;;;;-5.57;91.50;99602.06;1762195;80;20963;-73
2021/12/07 06:26:56;;;;;;;35.00;24.00;;;;;;;-5.59;91.50;99605.88;1763117;80;20992;-75
2021/12/07 06:29:23;;;;;;;31.27;21.52;;;;;;;-5.58;91.62;99608.00;1781767;79;21056;-74
2021/12/07 06:31:49;;;;;;;22.60;14.80;;;;;;;-5.57;91.61;99609.70;1762726;79;21030;-76
2021/12/07 06:34:16;;;;;;;20.37;12.95;;;;;;;-5.57;91.51;99610.97;1743702;80;21891;-78
2021/12/07 06:36:43;;;;;;;26.97;15.40;;;;;;;-5.60;91.41;99610.92;1748730;80;21056;-74
2021/12/07 06:39:10;;;;;;;29.83;17.97;;;;;;;-5.58;91.57;99617.75;1735072;81;21013;-74
2021/12/07 06:41:37;;;;;;;22.73;14.33;;;;;;;-5.56;91.54;99619.06;1773318;80;21008;-72
2021/12/07 06:44:05;;;;;;;19.73;13.65;;;;;;;-5.56;91.51;99625.00;1765910;80;21841;-74
2021/12/07 06:46:33;;;;;;;23.20;15.18;;;;;;;-5.53;91.62;99622.92;1764887;80;21065;-77
2021/12/07 06:49:06;;;;;;;18.48;12.63;;;;;;;-5.51;91.63;99628.90;1758878;79;22044;-75
2021/12/07 06:55:02;;;;;;;297.72;134.15;;;;;;;-5.45;91.64;99636.63;1668585;84;21022;-75
2021/12/07 06:57:29;;;;;;;474.92;232.60;;;;;;;-5.46;91.52;99637.44;1666881;84;21042;-74
2021/12/07 06:59:56;;;;;;;378.48;172.32;;;;;;;-5.47;91.52;99633.19;1670427;84;21139;-74
2021/12/07 07:02:23;;;;;;;506.10;258.87;;;;;;;-5.46;91.54;99631.08;1671388;84;21052;-74
2021/12/07 07:05:03;;;;;;;383.20;180.32;;;;;;;-5.43;91.60;99640.06;1667602;84;21180;-74
2021/12/07 07:07:33;;;;;;;329.65;147.85;;;;;;;-5.38;91.59;99637.14;1652491;85;21704;-74
2021/12/07 07:10:01;;;;;;;164.62;78.57;;;;;;;-5.37;91.45;99645.23;1669747;85;21197;-75
2021/12/07 07:12:28;;;;;;;126.45;61.48;;;;;;;-5.39;91.30;99654.53;1666132;84;21058;-73
2021/12/07 07:14:55;;;;;;;293.07;149.93;;;;;;;-5.40;91.19;99660.45;1666063;84;21137;-73
2021/12/07 07:17:21;;;;;;;;;;;;;;;-5.44;91.11;99662.50;1683531;83;21184;-74
2021/12/07 07:19:48;;;;;;;168.95;87.67;;;;;;;-5.47;91.11;99656.09;1665608;84;20935;-75
2021/12/07 07:22:15;;;;;;;183.10;102.90;;;;;;;-5.48;91.14;99655.66;1661375;84;21149;-76
2021/12/07 07:24:43;;;;;;;134.87;83.97;;;;;;;-5.52;91.02;99650.06;1695949;83;22538;-76
2021/12/07 07:27:12;;;;;;;39.48;24.47;;;;;;;-5.57;90.95;99661.84;1660009;84;21151;-76
2021/12/07 07:29:39;;;;;;;42.17;30.57;;;;;;;-5.58;90.93;99665.23;1682503;83;21171;-75
2021/12/07 07:32:08;;;;;;;66.72;48.98;;;;;;;-5.60;90.82;99666.89;1721473;80;21142;-74
2021/12/07 07:34:41;;;;;;;33.35;23.25;;;;;;;-5.64;90.83;99670.66;1741188;80;21172;-73
2021/12/07 07:37:08;;;;;;;21.70;13.90;;;;;;;-5.65;90.81;99672.77;1750267;80;21297;-74
2021/12/07 07:46:03;;;;;;;30.95;25.02;;;;;;;-5.69;91.02;99677.34;1574864;86;21127;-75
2021/12/07 07:48:17;;;;;;;27.25;20.25;;;;;;;-5.63;91.13;99674.05;1613618;84;21011;-76
2021/12/07 07:50:45;;;;;;;27.60;19.95;;;;;;;-5.57;91.11;99675.84;1693857;83;21041;-73
2021/12/07 07:53:12;;;;;;;31.65;16.10;;;;;;;-5.54;91.14;99674.65;1694129;83;21661;-75
2021/12/07 07:55:42;;;;;;;35.25;18.55;;;;;;;-5.45;91.39;99682.42;1674740;83;21178;-73
2021/12/07 07:58:08;;;;;;;118.02;70.65;;;;;;;-5.30;91.54;99697.92;1667193;83;21017;-72
2021/12/07 08:00:47;;;;;;;45.58;25.92;;;;;;;-5.07;91.64;99692.34;1665453;83;21091;-74
2021/12/07 08:04:42;;;;;;;96.30;57.62;;;;;;;-4.88;91.69;99695.59;1669293;82;21749;-74
2021/12/07 08:06:51;;;;;;;87.92;51.05;;;;;;;-4.65;91.61;99696.34;1560061;85;21139;-74
2021/12/07 08:09:13;;;;;;;138.07;75.03;;;;;;;-4.42;91.58;99683.49;1575451;88;21169;-75
2021/12/07 08:11:40;;;;;;;36.30;17.20;;;;;;;-4.38;91.12;99686.50;1581096;88;21343;-75
2021/12/07 08:14:07;;;;;;;36.08;20.68;;;;;;;-4.40;90.78;99693.27;1559098;88;21057;-75
2021/12/07 08:16:34;;;;;;;22.95;13.15;;;;;;;-4.35;90.89;99691.63;1565635;89;21217;-75
2021/12/07 08:19:01;;;;;;;25.43;12.40;;;;;;;-4.38;90.63;99689.05;1566696;89;21644;-77
2021/12/07 08:22:07;;;;;;;12.43;8.08;;;;;;;-4.41;90.66;99691.56;1566190;89;21039;-74
2021/12/07 08:24:36;;;;;;;10.93;7.08;;;;;;;-4.52;90.31;99682.93;1643221;85;21041;-76
2021/12/07 08:27:03;;;;;;;9.23;7.40;;;;;;;-4.60;90.55;99681.97;1650305;83;21650;-76
2021/12/07 08:29:30;;;;;;;13.62;8.73;;;;;;;-4.66;90.36;99683.17;1613178;85;21076;-75
2021/12/07 08:31:59;;;;;;;29.77;19.07;;;;;;;-4.64;90.74;99682.78;1649324;85;21085;-76
2021/12/07 08:34:27;;;;;;;17.15;10.23;;;;;;;-4.62;90.72;99683.63;1643748;85;21056;-77
2021/12/07 08:36:54;;;;;;;14.58;9.40;;;;;;;-4.63;90.55;99681.94;1597046;88;21529;-75
2021/12/07 08:39:20;;;;;;;16.52;8.33;;;;;;;-4.69;90.37;99686.95;1596769;87;21027;-76
2021/12/07 08:41:47;;;;;;;13.93;8.50;;;;;;;-4.84;90.09;99698.64;1618921;86;21135;-77
2021/12/07 08:44:14;;;;;;;17.97;9.37;;;;;;;-4.93;90.32;99688.30;1619462;86;21007;-76
2021/12/07 08:46:41;;;;;;;15.15;9.13;;;;;;;-4.91;90.51;99688.34;1662622;84;21914;-76
2021/12/07 08:49:08;;;;;;;16.30;8.35;;;;;;;-4.85;90.82;99685.45;1684414;82;21256;-75
2021/12/07 08:51:34;;;;;;;13.35;9.80;;;;;;;-4.75;90.96;99683.48;1692438;82;21206;-76
2021/12/07 08:54:19;;;;;;;19.12;9.85;;;;;;;-4.67;90.83;99687.84;1691969;82;21599;-76
2021/12/07 09:02:11;;;;;;;16.17;8.18;;;;;;;-4.48;91.07;99684.70;1690627;82;21103;-75
2021/12/07 09:05:03;;;;;;;14.05;8.20;;;;;;;-4.42;90.94;99689.86;1671122;81;21086;-76
2021/12/07 09:07:30;;;;;;;29.55;15.65;;;;;;;-4.33;91.17;99689.97;1739390;81;21902;-81
2021/12/07 09:09:57;;;;;;;20.53;10.30;;;;;;;-4.01;91.50;99689.48;1741300;80;21559;-78
2021/12/07 09:12:24;;;;;;;12.85;8.98;;;;;;;-3.82;91.36;99684.16;1741331;81;21360;-76
2021/12/07 09:14:53;;;;;;;17.73;9.67;;;;;;;-3.66;91.05;99689.00;1739588;81;21087;-75
2021/12/07 09:17:19;;;;;;;25.40;13.50;;;;;;;-3.46;91.32;99684.08;1739388;81;21004;-73
2021/12/07 09:19:46;;;;;;;22.65;11.48;;;;;;;-3.20;91.20;99681.72;1702508;82;21874;-77
2021/12/07 09:22:14;;;;;;;19.92;10.65;;;;;;;-3.07;90.89;99679.70;1737691;81;21051;-77
2021/12/07 09:24:40;;;;;;;22.42;13.05;;;;;;;-3.06;90.57;99677.56;1704069;82;20971;-83
2021/12/07 09:27:19;;;;;;;14.83;8.05;;;;;;;-3.03;90.50;99675.03;1677984;83;22418;-80
2021/12/07 09:30:11;;;;;;;15.00;8.13;;;;;;;-3.01;89.98;99683.56;1681105;83;21135;-75
2021/12/07 09:32:42;;;;;;;6.37;3.75;;;;;;;-3.20;89.87;99676.61;1679235;83;21239;-75
2021/12/07 09:35:11;;;;;;;6.33;3.62;;;;;;;-3.44;89.98;99676.87;1674700;83;21209;-79
2021/12/07 09:37:51;;;;;;;5.85;3.17;;;;;;;-3.62;89.75;99670.30;1724227;81;21174;-75
2021/12/07 09:40:22;;;;;;;7.33;2.98;;;;;;;-3.74;90.36;99675.31;1693410;83;21227;-75
2021/12/07 09:42:51;;;;;;;4.22;2.92;;;;;;;-3.76;90.62;99669.33;1735755;81;21341;-76
2021/12/07 09:45:20;;;;;;;4.55;3.20;;;;;;;-3.84;90.35;99667.58;1741773;80;21211;-81
2021/12/07 09:47:48;;;;;;;5.83;3.00;;;;;;;-3.93;90.33;99678.09;1743124;80;21088;-78
2021/12/07 09:50:19;;;;;;;4.35;2.90;;;;;;;-3.85;91.13;99677.33;1739352;80;21112;-78
2021/12/07 09:52:48;;;;;;;6.75;3.95;;;;;;;-3.77;91.05;99675.28;1737634;80;21653;-77
2021/12/07 09:55:16;;;;;;;3.17;2.30;;;;;;;-3.79;90.91;99684.61;1737686;80;21165;-77
2021/12/07 09:57:43;;;;;;;6.75;2.60;;;;;;;-3.75;90.86;99685.06;1742142;80;21068;-77
2021/12/07 10:00:21;;;;;;;6.45;2.67;;;;;;;-3.70;90.79;99679.59;1737523;80;21614;-77
2021/12/07 10:03:19;;;;;;;3.17;2.70;;;;;;;-3.70;90.58;99692.34;1746115;80;21595;-75
2021/12/07 10:08:56;;;;;;;2.50;2.00;;;;;;;-3.55;89.82;99677.19;1654672;84;21049;-80
2021/12/07 10:11:24;;;;;;;4.72;2.35;;;;;;;-3.46;89.35;99675.14;1643037;84;21058;-75
2021/12/07 10:13:53;;;;;;;3.30;2.27;;;;;;;-3.51;89.08;99673.81;1657359;84;22268;-79
2021/12/07 10:16:23;;;;;;;4.22;2.40;;;;;;;-3.57;89.08;99682.70;1659945;84;21032;-76
2021/12/07 10:18:51;;;;;;;3.05;1.77;;;;;;;-3.52;89.96;99687.42;1659368;84;21291;-76
2021/12/07 10:21:31;;;;;;;2.50;1.95;;;;;;;-3.38;90.18;99683.30;1655181;85;21123;-75
2021/12/07 10:24:06;;;;;;;6.40;3.08;;;;;;;-3.28;90.24;99684.63;1660169;84;21095;-76
2021/12/07 10:26:35;;;;;;;5.53;2.40;;;;;;;-3.16;89.93;99688.58;1654705;84;21014;-76
2021/12/07 10:29:19;;;;;;;3.77;2.33;;;;;;;-3.13;89.51;99691.16;1655836;85;21252;-77
2021/12/07 10:31:56;;;;;;;6.60;3.42;;;;;;;-3.24;88.68;99685.11;1594891;86;21092;-76
2021/12/07 10:34:31;;;;;;;3.58;2.00;;;;;;;-3.37;88.53;99693.08;1584596;88;21196;-76
2021/12/07 10:37:23;;;;;;;2.50;1.90;;;;;;;-3.52;87.84;99677.22;1581536;88;21251;-75
2021/12/07 10:40:04;;;;;;;2.67;2.05;;;;;;;-3.71;87.79;99686.82;1586463;87;21284;-73
2021/12/07 10:42:37;;;;;;;3.65;1.95;;;;;;;-3.87;88.32;99682.82;1572485;88;21898;-76
2021/12/07 10:45:10;;;;;;;2.37;1.60;;;;;;;-3.94;88.46;99683.61;1574349;88;21140;-77
2021/12/07 10:47:36;;;;;;;;;;;;;;;-4.05;88.48;99676.27;1591142;88;21115;-75
2021/12/07 10:50:09;;;;;;;3.92;1.92;;;;;;;-4.10;88.50;99674.08;1587139;88;21981;-76
2021/12/07 10:52:45;;;;;;;2.87;1.50;;;;;;;-4.15;88.47;99673.17;1581896;88;21699;-76
2021/12/07 10:55:19;;;;;;;2.17;1.80;;;;;;;-4.22;88.27;99682.45;1561760;89;21083;-76
2021/12/07 10:57:59;;;;;;;1.60;1.32;;;;;;;-4.30;88.35;99677.26;1578593;88;21265;-78
2021/12/07 11:00:40;;;;;;;11.28;7.20;;;;;;;-4.36;87.91;99677.62;1579265;88;21061;-74
2021/12/07 11:03:10;;;;;;;5.92;3.85;;;;;;;-4.40;88.36;99672.87;1555199;90;21611;-76
2021/12/07 11:05:50;;;;;;;3.77;2.52;;;;;;;-4.36;88.30;99674.64;1523707;91;21716;-74
2021/12/07 11:08:20;;;;;;;4.42;2.00;;;;;;;-4.25;88.72;99676.47;1563841;88;21132;-76
2021/12/07 11:10:50;;;;;;;4.28;2.30;;;;;;;-4.09;88.75;99673.23;1619059;86;21067;-75
2021/12/07 11:13:33;;;;;;;8.25;4.75;;;;;;;-4.00;88.55;99668.25;1610408;86;21047;-75
2021/12/07 11:16:03;;;;;;;4.40;3.35;;;;;;;-3.94;88.72;99670.86;1578429;88;21108;-75
2021/12/07 11:18:40;;;;;;;5.92;2.65;;;;;;;-3.87;88.43;99667.52;1608544;86;21334;-78
2021/12/07 11:21:09;;;;;;;;;;;;;;;-3.88;87.70;99655.61;1652774;85;21081;-78
2021/12/07 11:23:40;;;;;;;6.58;3.27;;;;;;;-3.90;87.81;99671.31;1649242;85;20174;-77
2021/12/07 11:31:42;;;;;;;14.00;8.53;;;;;;;-3.79;87.58;99676.95;1687737;83;21029;-78
2021/12/07 11:34:16;;;;;;;8.55;4.45;;;;;;;-3.83;87.28;99671.83;1706937;82;21465;-75
2021/12/07 11:36:51;;;;;;;10.15;3.55;;;;;;;-3.85;87.33;99658.19;1705865;82;20976;-75
2021/12/07 11:39:38;;;;;;;6.87;4.15;;;;;;;-3.90;87.02;99657.28;1705123;83;21035;-75
2021/12/07 11:42:12;;;;;;;9.45;4.22;;;;;;;-3.94;87.16;99658.11;1707042;82;21085;-76
2021/12/07 11:44:56;;;;;;;4.62;2.45;;;;;;;-3.95;87.48;99658.96;1707537;82;20998;-76
2021/12/07 11:47:35;;;;;;;4.95;3.60;;;;;;;-3.95;87.31;99666.61;1704725;82;21002;-76
2021/12/07 11:50:16;;;;;;;5.78;3.20;;;;;;;-4.01;86.97;99655.47;1705464;82;20940;-76
2021/12/07 11:52:45;;;;;;;3.30;2.33;;;;;;;-4.04;87.01;99661.39;1704241;82;21006;-79
2021/12/07 11:55:12;;;;;;;5.03;3.08;;;;;;;-4.03;87.54;99657.14;1705864;83;21069;-76
2021/12/07 11:57:40;;;;;;;2.80;2.22;;;;;;;-3.98;87.72;99658.90;1709241;82;21190;-75
2021/12/07 12:00:12;;;;;;;3.77;2.00;;;;;;;-3.96;87.43;99656.38;1706849;82;21581;-75
2021/12/07 12:02:40;;;;;;;4.85;2.40;;;;;;;-3.98;86.71;99659.33;1705666;83;21450;-76
2021/12/07 12:05:07;;;;;;;3.25;2.70;;;;;;;-4.09;86.54;99661.75;1706021;82;21069;-80
2021/12/07 12:07:36;;;;;;;5.87;3.52;;;;;;;-4.14;86.88;99657.05;1705512;83;21085;-77
2021/12/07 12:10:04;;;;;;;9.43;4.20;;;;;;;-4.14;86.99;99662.16;1711610;81;21276;-77
2021/12/07 12:12:38;;;;;;;4.67;2.62;;;;;;;-4.19;86.67;99653.59;1709946;82;21625;-76
2021/12/07 12:15:34;;;;;;;10.65;3.87;;;;;;;-4.24;86.61;99657.78;1706956;83;21572;-74
2021/12/07 12:18:36;;;;;;;14.53;4.92;;;;;;;-4.25;86.75;99661.17;1709393;83;20985;-74
2021/12/07 12:21:29;;;;;;;16.62;9.68;;;;;;;-4.33;87.02;99648.34;1661934;85;21080;-75
2021/12/07 12:24:18;;;;;;;4.45;2.40;;;;;;;-4.33;87.32;99654.28;1664531;85;21020;-76
2021/12/07 12:26:47;;;;;;;4.62;3.40;;;;;;;-4.37;86.62;99656.77;1655386;85;21092;-77
2021/12/07 12:29:25;;;;;;;5.80;3.50;;;;;;;-4.40;87.27;99647.39;1659734;85;21051;-76
2021/12/07 12:31:58;;;;;;;8.00;3.72;;;;;;;-4.39;87.31;99651.67;1660429;84;22138;-76
2021/12/07 12:34:29;;;;;;;6.25;3.80;;;;;;;-4.44;86.81;99645.66;1666202;85;21198;-76
2021/12/07 12:37:07;;;;;;;9.03;5.30;;;;;;;-4.51;86.65;99636.21;1612423;86;21062;-76
2021/12/07 12:39:58;;;;;;;9.90;5.08;;;;;;;-4.57;86.95;99643.78;1599242;88;21157;-73
2021/12/07 12:42:43;;;;;;;13.72;5.65;;;;;;;-4.58;87.00;99635.30;1660509;85;21179;-79
2021/12/07 12:45:22;;;;;;;10.53;6.15;;;;;;;-4.57;87.31;99631.05;1614828;87;21099;-82
2021/12/07 12:47:59;;;;;;;11.93;5.17;;;;;;;-4.60;87.02;99621.67;1629498;87;21557;-76
2021/12/07 12:50:31;;;;;;;14.00;6.20;;;;;;;-4.65;87.11;99628.42;1628821;87;22182;-78
2021/12/07 12:53:11;;;;;;;11.15;6.10;;;;;;;-4.65;87.17;99625.88;1625359;86;21654;-78
2021/12/07 12:55:48;;;;;;;5.30;3.45;;;;;;;-4.71;86.58;99618.13;1633574;86;21095;-79
2021/12/07 12:58:34;;;;;;;5.55;3.75;;;;;;;-4.77;86.60;99611.27;1695267;82;21045;-80
2021/12/07 13:01:18;;;;;;;8.43;3.40;;;;;;;-4.85;86.60;99620.50;1709890;83;22029;-81
2021/12/07 13:04:02;;;;;;;7.40;4.83;;;;;;;-4.87;87.00;99622.20;1712003;82;21121;-79
2021/12/07 13:06:46;;;;;;;6.92;3.87;;;;;;;-4.88;87.07;99620.47;1709726;82;21021;-82
2021/12/07 13:09:31;;;;;;;7.50;4.70;;;;;;;-4.88;87.05;99623.44;1709355;82;21723;-79
2021/12/07 13:12:06;;;;;;;8.40;3.98;;;;;;;-4.90;87.17;99624.70;1711464;82;21644;-80
2021/12/07 13:14:55;;;;;;;4.60;3.20;;;;;;;-4.90;86.99;99637.44;1711318;82;21254;-82
2021/12/07 13:17:36;;;;;;;11.03;4.83;;;;;;;-4.90;87.25;99634.89;1707460;83;21073;-82
2021/12/07 13:20:25;;;;;;;11.15;5.15;;;;;;;-4.93;86.88;99636.52;1705943;83;21065;-78
2021/12/07 13:23:09;;;;;;;6.75;3.85;;;;;;;-4.98;86.84;99649.21;1706232;83;21005;-82
2021/12/07 13:25:41;;;;;;;6.05;3.65;;;;;;;-5.08;86.73;99652.45;1675886;83;21795;-81
2021/12/07 13:28:16;;;;;;;9.88;4.40;;;;;;;-5.15;86.79;99640.45;1670619;83;21255;-77
2021/12/07 13:30:54;;;;;;;7.78;4.35;;;;;;;-5.18;87.01;99639.59;1673521;84;21025;-80
2021/12/07 13:33:37;;;;;;;10.68;5.65;;;;;;;-5.22;86.94;99646.73;1631573;86;21086;-77
2021/12/07 13:36:50;;;;;;;11.55;4.95;;;;;;;-5.28;86.95;99647.91;1624380;86;21660;-82
2021/12/07 13:39:23;;;;;;;8.93;4.55;;;;;;;-5.36;86.93;99645.66;1671759;83;21572;-80